createdAt,value
2023-03-27T00:01:35.282Z,0.70
2023-03-27T00:04:37.039Z,0.30
2023-03-27T00:07:41.272Z,0.30
2023-03-27T00:10:43.100Z,0.40
2023-03-27T00:13:49.381Z,0.33
2023-03-27T00:16:52.535Z,0.20
2023-03-27T00:19:54.324Z,0.80
2023-03-27T00:22:56.487Z,0.40
2023-03-27T00:25:59.043Z,0.53
2023-03-27T00:29:00.754Z,0.20
2023-03-27T00:32:02.590Z,0.20
2023-03-27T00:35:04.929Z,0.20
2023-03-27T00:38:09.758Z,0.27
2023-03-27T00:41:12.690Z,0.37
2023-03-27T00:44:27.541Z,0.27
2023-03-27T00:47:33.263Z,0.40
2023-03-27T00:50:39.527Z,0.40
2023-03-27T00:53:42.640Z,0.50
2023-03-27T00:56:46.197Z,0.50
2023-03-27T00:59:51.825Z,0.50
2023-03-27T01:02:55.447Z,1.87
2023-03-27T01:06:04.591Z,0.63
2023-03-27T01:09:06.385Z,1.40
2023-03-27T01:12:50.475Z,1.77
2023-03-27T01:16:03.560Z,1.00
2023-03-27T01:19:40.006Z,1.00
2023-03-27T01:23:11.265Z,3.70
2023-03-27T01:26:58.317Z,1.97
2023-03-27T01:30:37.259Z,2.53
2023-03-27T01:34:06.885Z,3.67
2023-03-27T01:37:21.882Z,2.73
2023-03-27T01:40:44.770Z,2.30
2023-03-27T01:43:52.467Z,1.67
2023-03-27T01:47:01.659Z,1.83
2023-03-27T01:50:27.339Z,2.80
2023-03-27T01:53:46.729Z,2.83
2023-03-27T01:56:58.186Z,1.90
2023-03-27T02:00:18.188Z,1.60
2023-03-27T02:03:26.983Z,2.47
2023-03-27T02:06:37.815Z,2.97
2023-03-27T02:09:49.281Z,2.73
2023-03-27T02:12:57.169Z,2.70
2023-03-27T02:16:01.675Z,1.73
2023-03-27T02:19:11.038Z,1.20
2023-03-27T02:22:13.363Z,3.00
2023-03-27T02:25:25.532Z,2.13
2023-03-27T02:28:44.219Z,2.40
2023-03-27T02:31:57.715Z,1.50
2023-03-27T02:35:12.592Z,3.03
2023-03-27T02:38:32.582Z,2.77
2023-03-27T02:41:51.381Z,3.70
2023-03-27T02:45:02.864Z,4.57
2023-03-27T02:48:17.499Z,4.60
2023-03-27T02:51:33.653Z,5.60
2023-03-27T02:54:42.055Z,6.23
2023-03-27T02:57:51.667Z,6.97
2023-03-27T03:00:55.606Z,5.20
2023-03-27T03:04:07.508Z,4.23
2023-03-27T03:07:11.502Z,2.83
2023-03-27T03:10:13.954Z,4.67
2023-03-27T03:13:17.491Z,3.80
2023-03-27T03:16:19.330Z,5.33
2023-03-27T03:19:21.939Z,4.73
2023-03-27T03:22:23.856Z,4.47
2023-03-27T03:25:25.870Z,4.57
2023-03-27T03:28:27.628Z,6.50
2023-03-27T03:31:43.096Z,5.80
2023-03-27T03:34:48.054Z,4.63
2023-03-27T03:37:51.527Z,8.50
2023-03-27T03:40:58.353Z,5.13
2023-03-27T03:44:00.592Z,6.80
2023-03-27T03:47:02.456Z,7.77
2023-03-27T03:50:05.096Z,8.97
2023-03-27T03:53:07.089Z,9.93
2023-03-27T03:56:09.100Z,11.37
2023-03-27T03:59:14.132Z,9.37
2023-03-27T04:02:28.674Z,12.73
2023-03-27T04:05:31.998Z,11.10
2023-03-27T04:08:35.070Z,7.77
2023-03-27T04:11:36.830Z,14.93
2023-03-27T04:14:38.572Z,10.23
2023-03-27T04:17:40.500Z,9.23
2023-03-27T04:20:42.340Z,10.77
2023-03-27T04:23:46.051Z,7.43
2023-03-27T04:26:48.054Z,8.73
2023-03-27T04:29:49.799Z,10.73
2023-03-27T04:32:52.996Z,10.57
2023-03-27T04:36:06.658Z,9.50
2023-03-27T04:39:10.600Z,10.20
2023-03-27T04:42:14.197Z,11.00
2023-03-27T04:45:17.947Z,9.10
2023-03-27T04:48:23.051Z,10.27
2023-03-27T04:51:26.671Z,9.47
2023-03-27T04:54:31.673Z,8.57
2023-03-27T04:57:33.804Z,9.50
2023-03-27T05:00:36.631Z,7.93
2023-03-27T05:03:39.221Z,7.83
2023-03-27T05:06:40.972Z,9.70
2023-03-27T05:09:43.772Z,6.57
2023-03-27T05:12:47.020Z,9.77
2023-03-27T05:15:48.765Z,11.50
2023-03-27T05:18:50.627Z,9.43
2023-03-27T05:21:52.679Z,13.90
2023-03-27T05:24:54.544Z,9.20
2023-03-27T05:27:56.461Z,12.03
2023-03-27T05:30:58.621Z,10.83
2023-03-27T05:34:00.859Z,10.50
2023-03-27T05:37:06.491Z,10.20
2023-03-27T05:40:09.004Z,14.63
2023-03-27T05:43:10.823Z,14.77
2023-03-27T05:46:13.932Z,10.20
2023-03-27T05:49:22.941Z,12.20
2023-03-27T05:52:28.446Z,10.57
2023-03-27T05:55:31.997Z,11.47
2023-03-27T05:58:33.880Z,8.87
2023-03-27T06:01:36.198Z,9.67
2023-03-27T06:04:38.116Z,9.37
2023-03-27T06:07:42.566Z,8.00
2023-03-27T06:10:45.048Z,6.27
2023-03-27T06:13:46.945Z,10.97
2023-03-27T06:16:49.128Z,6.83
2023-03-27T06:19:50.951Z,5.87
2023-03-27T06:22:56.148Z,5.37
2023-03-27T06:25:58.838Z,3.93
2023-03-27T06:29:00.825Z,4.90
2023-03-27T06:32:10.376Z,6.47
2023-03-27T06:35:14.630Z,5.70
2023-03-27T06:38:17.923Z,7.47
2023-03-27T06:41:19.849Z,3.37
2023-03-27T06:44:21.571Z,3.60
2023-03-27T06:47:23.437Z,8.93
2023-03-27T06:50:28.387Z,4.80
2023-03-27T06:53:33.180Z,6.23
2023-03-27T06:56:38.363Z,5.47
2023-03-27T06:59:40.298Z,2.33
2023-03-27T07:02:42.147Z,4.77
2023-03-27T07:05:44.036Z,6.00
2023-03-27T07:08:48.822Z,6.73
2023-03-27T07:11:50.738Z,6.80
2023-03-27T07:14:52.703Z,4.67
2023-03-27T07:17:58.943Z,6.87
2023-03-27T07:21:00.973Z,4.17
2023-03-27T07:24:03.528Z,5.27
2023-03-27T07:27:05.859Z,5.60
2023-03-27T07:30:12.185Z,5.20
2023-03-27T07:33:14.687Z,5.07
2023-03-27T07:36:16.703Z,3.50
2023-03-27T07:39:18.414Z,6.10
2023-03-27T07:42:20.350Z,6.10
2023-03-27T07:45:24.056Z,6.20
2023-03-27T07:48:26.175Z,3.53
2023-03-27T07:51:28.688Z,6.00
2023-03-27T07:54:31.482Z,6.47
2023-03-27T07:57:42.446Z,7.13
2023-03-27T08:00:53.060Z,5.03
2023-03-27T08:03:55.265Z,4.53
2023-03-27T08:06:57.052Z,7.37
2023-03-27T08:09:59.122Z,2.67
2023-03-27T08:13:01.396Z,4.83
2023-03-27T08:16:04.322Z,7.00
2023-03-27T08:19:06.590Z,3.17
2023-03-27T08:22:08.980Z,6.77
2023-03-27T08:25:10.833Z,6.73
2023-03-27T08:28:12.647Z,2.77
2023-03-27T08:31:16.111Z,5.50
2023-03-27T08:34:18.020Z,5.77
2023-03-27T08:37:19.946Z,6.10
2023-03-27T08:40:26.127Z,6.97
2023-03-27T08:43:43.989Z,8.20
2023-03-27T08:46:53.046Z,4.03
2023-03-27T08:49:58.231Z,7.77
2023-03-27T08:53:01.429Z,6.70
2023-03-27T08:56:03.606Z,7.40
2023-03-27T08:59:17.467Z,5.77
2023-03-27T09:02:48.501Z,4.93
2023-03-27T09:06:08.717Z,5.20
2023-03-27T09:09:34.517Z,4.50
2023-03-27T09:13:16.093Z,7.63
2023-03-27T09:16:35.872Z,8.77
2023-03-27T09:19:43.319Z,4.23
2023-03-27T09:22:52.820Z,6.10
2023-03-27T09:26:22.511Z,5.80
2023-03-27T09:29:27.458Z,2.63
2023-03-27T09:32:33.437Z,4.93
2023-03-27T09:35:38.730Z,4.03
2023-03-27T09:38:50.887Z,6.90
2023-03-27T09:42:07.213Z,2.37
2023-03-27T09:45:13.193Z,6.07
2023-03-27T09:48:24.383Z,5.70
2023-03-27T09:51:39.313Z,5.20
2023-03-27T09:54:54.893Z,4.93
2023-03-27T09:58:10.066Z,4.20
2023-03-27T10:01:34.564Z,4.73
2023-03-27T10:04:36.750Z,5.43
2023-03-27T10:07:40.014Z,6.13
2023-03-27T10:10:45.796Z,6.63
2023-03-27T10:13:50.095Z,5.73
2023-03-27T10:16:52.557Z,4.70
2023-03-27T10:20:13.197Z,4.57
2023-03-27T10:23:28.284Z,4.43
2023-03-27T10:26:33.969Z,5.10
2023-03-27T10:29:38.315Z,5.67
2023-03-27T10:32:47.121Z,4.03
2023-03-27T10:35:49.713Z,4.33
2023-03-27T10:39:03.876Z,4.83
2023-03-27T10:42:08.774Z,3.27
2023-03-27T10:45:21.390Z,6.03
2023-03-27T10:48:45.078Z,5.40
2023-03-27T10:51:51.444Z,5.43
2023-03-27T10:54:59.011Z,2.87
2023-03-27T10:58:11.617Z,4.03
2023-03-27T11:01:34.676Z,8.90
2023-03-27T11:04:54.748Z,9.03
2023-03-27T11:08:06.104Z,7.97
2023-03-27T11:11:15.564Z,6.73
2023-03-27T11:14:23.137Z,5.73
2023-03-27T11:17:33.281Z,5.83
2023-03-27T11:20:46.191Z,5.83
2023-03-27T11:23:55.961Z,5.57
2023-03-27T11:27:30.633Z,4.63
2023-03-27T11:30:37.297Z,5.57
2023-03-27T11:34:06.042Z,6.40
2023-03-27T11:37:19.429Z,3.67
2023-03-27T11:40:36.893Z,5.40
2023-03-27T11:43:41.770Z,5.33
2023-03-27T11:47:19.636Z,4.23
2023-03-27T11:50:38.630Z,5.10
2023-03-27T11:53:59.421Z,4.47
2023-03-27T11:57:05.837Z,7.03
2023-03-27T12:00:22.027Z,5.83
2023-03-27T12:03:30.457Z,3.87
2023-03-27T12:07:03.914Z,8.40
2023-03-27T12:10:28.801Z,9.47
2023-03-27T12:14:05.446Z,3.93
2023-03-27T12:17:39.429Z,2.60
2023-03-27T12:21:05.510Z,7.97
2023-03-27T12:24:28.829Z,5.30
2023-03-27T12:28:01.561Z,5.30
2023-03-27T12:31:27.633Z,6.70
2023-03-27T12:34:50.522Z,3.30
2023-03-27T12:38:00.655Z,4.43
2023-03-27T12:41:19.190Z,5.00
2023-03-27T12:44:30.146Z,2.57
2023-03-27T12:47:32.118Z,6.40
2023-03-27T12:50:41.495Z,2.17
2023-03-27T12:53:53.833Z,5.37
2023-03-27T12:57:12.949Z,5.03
2023-03-27T13:00:25.670Z,3.37
2023-03-27T13:03:37.370Z,3.83
2023-03-27T13:07:19.046Z,3.80
2023-03-27T13:10:36.037Z,7.30
2023-03-27T13:14:02.810Z,6.60
2023-03-27T13:17:22.768Z,8.50
2023-03-27T13:20:54.760Z,5.57
2023-03-27T13:24:41.129Z,5.70
2023-03-27T13:27:53.670Z,4.87
2023-03-27T13:30:59.987Z,5.90
2023-03-27T13:34:27.892Z,3.40
2023-03-27T13:37:36.829Z,6.87
2023-03-27T13:40:40.651Z,4.67
2023-03-27T13:43:42.696Z,4.43
2023-03-27T13:47:08.557Z,6.00
2023-03-27T13:50:42.775Z,3.77
2023-03-27T13:54:03.727Z,4.30
2023-03-27T13:57:36.059Z,8.60
2023-03-27T14:01:12.873Z,3.17
2023-03-27T14:04:39.708Z,8.77
2023-03-27T14:08:06.260Z,3.83
2023-03-27T14:11:29.633Z,4.03
2023-03-27T14:14:51.125Z,5.80
2023-03-27T14:18:12.138Z,2.27
2023-03-27T14:21:35.417Z,3.93
2023-03-27T14:24:57.695Z,1.33
2023-03-27T14:28:00.046Z,5.23
2023-03-27T14:31:07.189Z,4.40
2023-03-27T14:34:24.964Z,3.07
2023-03-27T14:37:38.543Z,2.67
2023-03-27T14:40:47.683Z,3.70
2023-03-27T14:43:51.545Z,2.83
2023-03-27T14:47:15.320Z,3.97
2023-03-27T14:50:18.412Z,4.90
2023-03-27T14:53:27.136Z,2.87
2023-03-27T14:56:37.420Z,1.63
2023-03-27T14:59:42.833Z,2.60
2023-03-27T15:02:48.649Z,4.40
2023-03-27T15:06:04.716Z,1.77
2023-03-27T15:09:19.094Z,2.37
2023-03-27T15:12:23.582Z,4.13
2023-03-27T15:15:38.886Z,3.03
2023-03-27T15:19:12.246Z,1.67
2023-03-27T15:22:35.329Z,3.43
2023-03-27T15:25:49.916Z,3.97
2023-03-27T15:29:08.941Z,3.00
2023-03-27T15:32:14.842Z,1.57
2023-03-27T15:35:36.263Z,3.10
2023-03-27T15:38:38.172Z,5.97
2023-03-27T15:41:42.767Z,4.30
2023-03-27T15:44:44.606Z,2.57
2023-03-27T15:48:02.954Z,1.70
2023-03-27T15:51:07.763Z,4.50
2023-03-27T15:54:32.937Z,2.27
2023-03-27T15:57:35.016Z,2.27
2023-03-27T16:00:43.339Z,3.57
2023-03-27T16:03:45.716Z,2.43
2023-03-27T16:06:54.639Z,3.63
2023-03-27T16:10:02.474Z,3.93
2023-03-27T16:13:06.616Z,3.07
2023-03-27T16:16:24.968Z,3.50
2023-03-27T16:19:26.753Z,1.03
2023-03-27T16:22:31.903Z,1.70
2023-03-27T16:25:33.937Z,3.27
2023-03-27T16:28:36.943Z,2.33
2023-03-27T16:31:39.032Z,7.70
2023-03-27T16:34:41.214Z,5.23
2023-03-27T16:37:43.256Z,1.60
2023-03-27T16:40:45.631Z,2.70
2023-03-27T16:43:49.063Z,3.13
2023-03-27T16:46:50.946Z,3.27
2023-03-27T16:50:07.866Z,4.67
2023-03-27T16:53:12.474Z,7.60
2023-03-27T16:56:14.327Z,2.53
2023-03-27T16:59:16.509Z,4.57
2023-03-27T17:02:18.229Z,5.43
2023-03-27T17:05:20.065Z,4.50
2023-03-27T17:08:22.093Z,6.00
2023-03-27T17:11:23.958Z,5.33
2023-03-27T17:14:25.891Z,4.37
2023-03-27T17:17:27.801Z,3.70
2023-03-27T17:20:29.603Z,2.47
2023-03-27T17:23:31.996Z,5.33
2023-03-27T17:26:35.442Z,6.53
2023-03-27T17:29:37.210Z,1.87
2023-03-27T17:32:39.097Z,1.27
2023-03-27T17:35:41.477Z,1.10
2023-03-27T17:38:43.909Z,2.77
2023-03-27T17:41:45.693Z,1.57
2023-03-27T17:44:47.635Z,1.10
2023-03-27T17:47:50.544Z,2.13
2023-03-27T17:51:05.159Z,2.17
2023-03-27T17:54:10.289Z,2.43
2023-03-27T17:57:12.065Z,1.53
2023-03-27T18:00:14.987Z,2.83
2023-03-27T18:03:17.006Z,3.53
2023-03-27T18:06:19.265Z,1.57
2023-03-27T18:09:21.652Z,2.43
2023-03-27T18:12:23.476Z,2.27
2023-03-27T18:15:25.475Z,2.10
2023-03-27T18:18:27.231Z,2.33
2023-03-27T18:21:29.046Z,1.57
2023-03-27T18:24:31.308Z,3.30
2023-03-27T18:27:33.254Z,1.90
2023-03-27T18:30:35.023Z,2.27
2023-03-27T18:33:37.180Z,2.13
2023-03-27T18:36:39.026Z,3.30
2023-03-27T18:39:40.900Z,1.53
2023-03-27T18:42:46.441Z,1.07
2023-03-27T18:45:58.685Z,1.20
2023-03-27T18:49:10.290Z,1.37
2023-03-27T18:52:19.570Z,1.60
2023-03-27T18:55:21.412Z,3.10
2023-03-27T18:58:24.461Z,2.30
2023-03-27T19:01:26.884Z,2.53
2023-03-27T19:04:29.085Z,2.70
2023-03-27T19:07:30.946Z,2.80
2023-03-27T19:10:35.144Z,2.17
2023-03-27T19:13:37.212Z,1.20
2023-03-27T19:16:39.076Z,2.37
2023-03-27T19:19:42.206Z,3.07
2023-03-27T19:22:44.778Z,1.57
2023-03-27T19:25:50.049Z,2.47
2023-03-27T19:28:51.939Z,1.63
2023-03-27T19:31:54.522Z,4.70
2023-03-27T19:34:56.464Z,3.37
2023-03-27T19:37:58.223Z,4.03
2023-03-27T19:41:00.480Z,3.90
2023-03-27T19:44:02.376Z,1.73
2023-03-27T19:47:05.464Z,2.60
2023-03-27T19:50:08.943Z,3.23
2023-03-27T19:53:10.706Z,2.70
2023-03-27T19:56:12.466Z,2.33
2023-03-27T19:59:24.124Z,3.17
2023-03-27T20:02:31.951Z,3.47
2023-03-27T20:05:33.804Z,2.57
2023-03-27T20:08:38.302Z,1.67
2023-03-27T20:11:41.962Z,2.57
2023-03-27T20:14:48.878Z,1.47
2023-03-27T20:17:59.551Z,2.43
2023-03-27T20:21:05.158Z,1.43
2023-03-27T20:24:10.215Z,2.57
2023-03-27T20:27:13.039Z,2.07
2023-03-27T20:30:14.834Z,1.20
2023-03-27T20:33:17.301Z,2.60
2023-03-27T20:36:20.514Z,1.80
2023-03-27T20:39:22.293Z,3.60
2023-03-27T20:42:24.204Z,2.47
2023-03-27T20:45:26.945Z,1.90
2023-03-27T20:48:39.964Z,2.67
2023-03-27T20:51:42.607Z,2.53
2023-03-27T20:54:44.887Z,4.27
2023-03-27T20:57:46.599Z,2.87
2023-03-27T21:00:48.881Z,2.40
2023-03-27T21:03:54.152Z,4.50
2023-03-27T21:06:57.771Z,1.30
2023-03-27T21:10:00.502Z,2.47
2023-03-27T21:13:02.954Z,2.43
2023-03-27T21:16:05.832Z,3.27
2023-03-27T21:19:07.729Z,3.07
2023-03-27T21:22:09.663Z,3.30
2023-03-27T21:25:11.725Z,2.63
2023-03-27T21:28:13.560Z,2.87
2023-03-27T21:31:15.424Z,4.17
2023-03-27T21:34:17.205Z,2.10
2023-03-27T21:37:19.119Z,3.67
2023-03-27T21:40:21.096Z,2.23
2023-03-27T21:43:23.157Z,2.23
2023-03-27T21:46:24.942Z,1.27
2023-03-27T21:49:26.969Z,3.77
2023-03-27T21:52:28.774Z,4.50
2023-03-27T21:55:30.752Z,2.90
2023-03-27T21:58:32.521Z,2.50
2023-03-27T22:01:34.451Z,6.67
2023-03-27T22:04:36.345Z,3.53
2023-03-27T22:07:38.143Z,1.97
2023-03-27T22:10:39.997Z,3.87
2023-03-27T22:13:43.514Z,4.30
2023-03-27T22:16:46.024Z,2.73
2023-03-27T22:19:47.810Z,4.77
2023-03-27T22:22:49.617Z,2.97
2023-03-27T22:25:53.216Z,5.53
2023-03-27T22:28:56.460Z,5.47
2023-03-27T22:31:58.235Z,2.40
2023-03-27T22:35:00.172Z,3.37
2023-03-27T22:38:02.004Z,3.57
2023-03-27T22:41:05.913Z,2.43
2023-03-27T22:44:07.845Z,4.70
2023-03-27T22:47:09.915Z,6.13
2023-03-27T22:50:11.771Z,4.80
2023-03-27T22:53:14.022Z,3.50
2023-03-27T22:56:16.477Z,3.23
2023-03-27T22:59:18.322Z,6.30
2023-03-27T23:02:20.870Z,2.87
2023-03-27T23:05:22.633Z,4.43
2023-03-27T23:08:29.629Z,6.43
2023-03-27T23:11:31.649Z,3.60
2023-03-27T23:14:33.505Z,2.63
2023-03-27T23:17:35.460Z,5.60
2023-03-27T23:20:37.354Z,7.17
2023-03-27T23:23:40.536Z,7.40
2023-03-27T23:26:42.310Z,4.97
2023-03-27T23:29:44.577Z,4.40
2023-03-27T23:32:46.441Z,7.03
2023-03-27T23:35:48.439Z,4.07
2023-03-27T23:38:51.624Z,3.83
2023-03-27T23:41:53.420Z,2.67
2023-03-27T23:44:55.783Z,2.73
2023-03-27T23:47:58.013Z,4.13
2023-03-27T23:51:00.651Z,2.53
2023-03-27T23:54:03.684Z,4.13
2023-03-27T23:57:05.500Z,3.97
